sensor_id;sensor_type;location;lat;lon;timestamp;P1;durP1;ratioP1;P2;durP2;ratioP2
20008;SDS011;10165;42.662;23.260;2022-07-24T00:02:16;11.97;;;6.27;;
20008;SDS011;10165;42.662;23.260;2022-07-24T00:04:43;6.00;;;4.57;;
20008;SDS011;10165;42.662;23.260;2022-07-24T00:07:09;13.07;;;5.30;;
20008;SDS011;10165;42.662;23.260;2022-07-24T00:09:36;11.13;;;5.10;;
20008;SDS011;10165;42.662;23.260;2022-07-24T00:12:03;10.60;;;4.50;;
20008;SDS011;10165;42.662;23.260;2022-07-24T00:14:30;9.87;;;5.23;;
20008;SDS011;10165;42.662;23.260;2022-07-24T00:16:57;9.10;;;4.50;;
20008;SDS011;10165;42.662;23.260;2022-07-24T00:19:24;12.33;;;4.30;;
20008;SDS011;10165;42.662;23.260;2022-07-24T00:21:50;12.00;;;5.20;;
20008;SDS011;10165;42.662;23.260;2022-07-24T00:24:17;8.97;;;5.60;;
20008;SDS011;10165;42.662;23.260;2022-07-24T00:26:44;8.80;;;4.73;;
20008;SDS011;10165;42.662;23.260;2022-07-24T00:29:10;8.13;;;4.67;;
20008;SDS011;10165;42.662;23.260;2022-07-24T00:31:37;5.47;;;4.07;;
20008;SDS011;10165;42.662;23.260;2022-07-24T00:34:04;13.83;;;4.60;;
20008;SDS011;10165;42.662;23.260;2022-07-24T00:36:31;8.53;;;5.53;;
20008;SDS011;10165;42.662;23.260;2022-07-24T00:38:57;9.63;;;5.23;;
20008;SDS011;10165;42.662;23.260;2022-07-24T00:41:24;7.47;;;4.60;;
20008;SDS011;10165;42.662;23.260;2022-07-24T00:44:04;6.80;;;4.80;;
20008;SDS011;10165;42.662;23.260;2022-07-24T00:46:33;12.50;;;5.07;;
20008;SDS011;10165;42.662;23.260;2022-07-24T00:49:01;7.60;;;4.57;;
20008;SDS011;10165;42.662;23.260;2022-07-24T00:51:30;7.60;;;4.93;;
20008;SDS011;10165;42.662;23.260;2022-07-24T00:53:57;6.97;;;4.90;;
20008;SDS011;10165;42.662;23.260;2022-07-24T00:56:24;6.77;;;4.73;;
20008;SDS011;10165;42.662;23.260;2022-07-24T00:58:51;10.93;;;4.20;;
20008;SDS011;10165;42.662;23.260;2022-07-24T01:01:18;12.90;;;5.07;;
20008;SDS011;10165;42.662;23.260;2022-07-24T01:03:45;7.23;;;4.57;;
20008;SDS011;10165;42.662;23.260;2022-07-24T01:06:12;7.67;;;4.67;;
20008;SDS011;10165;42.662;23.260;2022-07-24T01:08:40;8.23;;;4.40;;
20008;SDS011;10165;42.662;23.260;2022-07-24T01:11:09;7.23;;;4.20;;
20008;SDS011;10165;42.662;23.260;2022-07-24T01:13:37;6.17;;;4.33;;
20008;SDS011;10165;42.662;23.260;2022-07-24T01:16:04;12.80;;;4.23;;
20008;SDS011;10165;42.662;23.260;2022-07-24T01:18:31;17.13;;;4.77;;
20008;SDS011;10165;42.662;23.260;2022-07-24T01:20:58;10.33;;;6.00;;
20008;SDS011;10165;42.662;23.260;2022-07-24T01:23:25;8.83;;;4.70;;
20008;SDS011;10165;42.662;23.260;2022-07-24T01:25:52;9.13;;;4.33;;
20008;SDS011;10165;42.662;23.260;2022-07-24T01:28:18;8.33;;;4.47;;
20008;SDS011;10165;42.662;23.260;2022-07-24T01:30:46;7.63;;;4.50;;
20008;SDS011;10165;42.662;23.260;2022-07-24T01:33:13;6.73;;;4.73;;
20008;SDS011;10165;42.662;23.260;2022-07-24T01:35:40;9.13;;;5.00;;
20008;SDS011;10165;42.662;23.260;2022-07-24T01:38:08;8.40;;;4.63;;
20008;SDS011;10165;42.662;23.260;2022-07-24T01:40:36;8.30;;;5.40;;
20008;SDS011;10165;42.662;23.260;2022-07-24T01:43:03;9.10;;;4.73;;
20008;SDS011;10165;42.662;23.260;2022-07-24T01:45:30;7.60;;;4.57;;
20008;SDS011;10165;42.662;23.260;2022-07-24T01:47:56;7.63;;;4.70;;
20008;SDS011;10165;42.662;23.260;2022-07-24T01:50:23;6.37;;;4.23;;
20008;SDS011;10165;42.662;23.260;2022-07-24T01:52:50;7.53;;;4.67;;
20008;SDS011;10165;42.662;23.260;2022-07-24T01:55:19;7.97;;;4.83;;
20008;SDS011;10165;42.662;23.260;2022-07-24T01:57:47;14.77;;;5.80;;
20008;SDS011;10165;42.662;23.260;2022-07-24T02:00:15;7.57;;;4.80;;
20008;SDS011;10165;42.662;23.260;2022-07-24T02:02:45;9.97;;;5.30;;
20008;SDS011;10165;42.662;23.260;2022-07-24T02:05:12;8.10;;;4.63;;
20008;SDS011;10165;42.662;23.260;2022-07-24T02:07:40;6.87;;;5.00;;
20008;SDS011;10165;42.662;23.260;2022-07-24T02:10:08;9.77;;;4.90;;
20008;SDS011;10165;42.662;23.260;2022-07-24T02:12:36;5.80;;;4.90;;
20008;SDS011;10165;42.662;23.260;2022-07-24T02:15:03;11.87;;;5.60;;
20008;SDS011;10165;42.662;23.260;2022-07-24T02:17:31;11.07;;;5.00;;
20008;SDS011;10165;42.662;23.260;2022-07-24T02:19:57;6.10;;;4.50;;
20008;SDS011;10165;42.662;23.260;2022-07-24T02:22:24;10.67;;;5.33;;
20008;SDS011;10165;42.662;23.260;2022-07-24T02:24:51;7.17;;;4.63;;
20008;SDS011;10165;42.662;23.260;2022-07-24T02:27:18;10.30;;;5.13;;
20008;SDS011;10165;42.662;23.260;2022-07-24T02:29:44;7.37;;;5.20;;
20008;SDS011;10165;42.662;23.260;2022-07-24T02:32:11;12.63;;;5.80;;
20008;SDS011;10165;42.662;23.260;2022-07-24T02:34:38;11.67;;;5.13;;
20008;SDS011;10165;42.662;23.260;2022-07-24T02:37:05;7.37;;;4.93;;
20008;SDS011;10165;42.662;23.260;2022-07-24T02:39:31;10.80;;;4.97;;
20008;SDS011;10165;42.662;23.260;2022-07-24T02:41:58;13.40;;;5.10;;
20008;SDS011;10165;42.662;23.260;2022-07-24T02:44:25;9.27;;;4.73;;
20008;SDS011;10165;42.662;23.260;2022-07-24T02:46:51;10.77;;;5.80;;
20008;SDS011;10165;42.662;23.260;2022-07-24T02:49:18;6.93;;;5.10;;
20008;SDS011;10165;42.662;23.260;2022-07-24T02:51:45;11.80;;;5.40;;
20008;SDS011;10165;42.662;23.260;2022-07-24T02:54:12;9.00;;;4.87;;
20008;SDS011;10165;42.662;23.260;2022-07-24T02:56:38;9.63;;;5.03;;
20008;SDS011;10165;42.662;23.260;2022-07-24T02:59:05;10.80;;;5.70;;
20008;SDS011;10165;42.662;23.260;2022-07-24T03:01:32;12.37;;;5.10;;
20008;SDS011;10165;42.662;23.260;2022-07-24T03:03:59;11.57;;;5.40;;
20008;SDS011;10165;42.662;23.260;2022-07-24T03:06:26;8.47;;;4.73;;
20008;SDS011;10165;42.662;23.260;2022-07-24T03:08:53;8.53;;;4.90;;
20008;SDS011;10165;42.662;23.260;2022-07-24T03:11:20;8.90;;;5.50;;
20008;SDS011;10165;42.662;23.260;2022-07-24T03:13:47;8.67;;;5.40;;
20008;SDS011;10165;42.662;23.260;2022-07-24T03:16:14;14.43;;;5.50;;
20008;SDS011;10165;42.662;23.260;2022-07-24T03:18:42;15.67;;;5.57;;
20008;SDS011;10165;42.662;23.260;2022-07-24T03:21:15;10.10;;;5.03;;
20008;SDS011;10165;42.662;23.260;2022-07-24T03:24:02;11.33;;;6.30;;
20008;SDS011;10165;42.662;23.260;2022-07-24T03:26:29;8.37;;;5.03;;
20008;SDS011;10165;42.662;23.260;2022-07-24T03:28:56;8.87;;;5.33;;
20008;SDS011;10165;42.662;23.260;2022-07-24T03:31:22;10.47;;;4.87;;
20008;SDS011;10165;42.662;23.260;2022-07-24T03:33:49;10.43;;;5.03;;
20008;SDS011;10165;42.662;23.260;2022-07-24T03:36:16;10.53;;;5.23;;
20008;SDS011;10165;42.662;23.260;2022-07-24T03:38:43;10.37;;;5.40;;
20008;SDS011;10165;42.662;23.260;2022-07-24T03:41:09;9.30;;;5.57;;
20008;SDS011;10165;42.662;23.260;2022-07-24T03:43:36;12.37;;;5.17;;
20008;SDS011;10165;42.662;23.260;2022-07-24T03:46:03;8.67;;;5.43;;
20008;SDS011;10165;42.662;23.260;2022-07-24T03:48:30;9.43;;;5.10;;
20008;SDS011;10165;42.662;23.260;2022-07-24T03:50:56;13.93;;;5.90;;
20008;SDS011;10165;42.662;23.260;2022-07-24T03:53:25;11.13;;;5.23;;
20008;SDS011;10165;42.662;23.260;2022-07-24T03:55:53;19.63;;;6.27;;
20008;SDS011;10165;42.662;23.260;2022-07-24T03:58:20;11.30;;;5.37;;
20008;SDS011;10165;42.662;23.260;2022-07-24T04:00:46;10.50;;;4.97;;
20008;SDS011;10165;42.662;23.260;2022-07-24T04:03:13;17.77;;;5.63;;
20008;SDS011;10165;42.662;23.260;2022-07-24T04:05:40;5.60;;;4.43;;
20008;SDS011;10165;42.662;23.260;2022-07-24T04:08:17;11.30;;;5.07;;
20008;SDS011;10165;42.662;23.260;2022-07-24T04:10:44;9.23;;;4.97;;
20008;SDS011;10165;42.662;23.260;2022-07-24T04:13:11;7.47;;;4.53;;
20008;SDS011;10165;42.662;23.260;2022-07-24T04:15:37;11.03;;;5.00;;
20008;SDS011;10165;42.662;23.260;2022-07-24T04:18:04;8.70;;;4.90;;
20008;SDS011;10165;42.662;23.260;2022-07-24T04:20:31;11.43;;;5.13;;
20008;SDS011;10165;42.662;23.260;2022-07-24T04:22:57;10.17;;;4.97;;
20008;SDS011;10165;42.662;23.260;2022-07-24T04:25:24;11.40;;;5.50;;
20008;SDS011;10165;42.662;23.260;2022-07-24T04:27:51;9.20;;;4.93;;
20008;SDS011;10165;42.662;23.260;2022-07-24T04:30:17;13.03;;;5.47;;
20008;SDS011;10165;42.662;23.260;2022-07-24T04:32:44;9.23;;;5.07;;
20008;SDS011;10165;42.662;23.260;2022-07-24T04:35:11;11.13;;;5.27;;
20008;SDS011;10165;42.662;23.260;2022-07-24T04:37:37;9.77;;;5.40;;
20008;SDS011;10165;42.662;23.260;2022-07-24T04:40:04;14.03;;;5.17;;
20008;SDS011;10165;42.662;23.260;2022-07-24T04:42:32;13.80;;;4.93;;
20008;SDS011;10165;42.662;23.260;2022-07-24T04:44:58;13.70;;;5.57;;
20008;SDS011;10165;42.662;23.260;2022-07-24T04:47:25;13.27;;;5.40;;
20008;SDS011;10165;42.662;23.260;2022-07-24T04:49:52;8.83;;;5.33;;
20008;SDS011;10165;42.662;23.260;2022-07-24T04:52:18;9.13;;;5.37;;
20008;SDS011;10165;42.662;23.260;2022-07-24T04:54:45;10.67;;;5.07;;
20008;SDS011;10165;42.662;23.260;2022-07-24T04:57:12;8.73;;;5.50;;
20008;SDS011;10165;42.662;23.260;2022-07-24T04:59:39;12.30;;;5.27;;
20008;SDS011;10165;42.662;23.260;2022-07-24T05:02:05;19.33;;;6.03;;
20008;SDS011;10165;42.662;23.260;2022-07-24T05:04:32;9.23;;;5.67;;
20008;SDS011;10165;42.662;23.260;2022-07-24T05:07:01;11.57;;;5.80;;
20008;SDS011;10165;42.662;23.260;2022-07-24T05:09:29;15.90;;;6.67;;
20008;SDS011;10165;42.662;23.260;2022-07-24T05:11:56;6.23;;;5.10;;
20008;SDS011;10165;42.662;23.260;2022-07-24T05:14:22;11.43;;;5.93;;
20008;SDS011;10165;42.662;23.260;2022-07-24T05:16:49;14.07;;;6.40;;
20008;SDS011;10165;42.662;23.260;2022-07-24T05:19:16;14.10;;;5.80;;
20008;SDS011;10165;42.662;23.260;2022-07-24T05:21:43;9.57;;;5.83;;
20008;SDS011;10165;42.662;23.260;2022-07-24T05:24:09;10.43;;;5.63;;
20008;SDS011;10165;42.662;23.260;2022-07-24T05:26:36;11.53;;;6.13;;
20008;SDS011;10165;42.662;23.260;2022-07-24T05:29:04;12.17;;;6.20;;
20008;SDS011;10165;42.662;23.260;2022-07-24T05:31:34;15.83;;;6.43;;
20008;SDS011;10165;42.662;23.260;2022-07-24T05:34:06;22.70;;;6.43;;
20008;SDS011;10165;42.662;23.260;2022-07-24T05:36:33;12.57;;;6.67;;
20008;SDS011;10165;42.662;23.260;2022-07-24T05:39:00;11.33;;;6.10;;
20008;SDS011;10165;42.662;23.260;2022-07-24T05:41:27;11.77;;;6.60;;
20008;SDS011;10165;42.662;23.260;2022-07-24T05:43:54;10.10;;;6.57;;
20008;SDS011;10165;42.662;23.260;2022-07-24T05:46:20;16.93;;;6.63;;
20008;SDS011;10165;42.662;23.260;2022-07-24T05:48:47;14.07;;;6.73;;
20008;SDS011;10165;42.662;23.260;2022-07-24T05:51:14;15.47;;;6.40;;
20008;SDS011;10165;42.662;23.260;2022-07-24T05:53:41;10.20;;;6.50;;
20008;SDS011;10165;42.662;23.260;2022-07-24T05:56:08;12.93;;;6.50;;
20008;SDS011;10165;42.662;23.260;2022-07-24T05:58:34;16.33;;;6.90;;
20008;SDS011;10165;42.662;23.260;2022-07-24T06:01:01;15.70;;;6.47;;
20008;SDS011;10165;42.662;23.260;2022-07-24T06:03:28;11.47;;;7.23;;
20008;SDS011;10165;42.662;23.260;2022-07-24T06:05:55;11.47;;;6.73;;
20008;SDS011;10165;42.662;23.260;2022-07-24T06:08:22;16.90;;;6.10;;
20008;SDS011;10165;42.662;23.260;2022-07-24T06:10:48;15.77;;;6.30;;
20008;SDS011;10165;42.662;23.260;2022-07-24T06:13:15;13.30;;;6.60;;
20008;SDS011;10165;42.662;23.260;2022-07-24T06:15:43;9.50;;;6.37;;
20008;SDS011;10165;42.662;23.260;2022-07-24T06:18:09;14.67;;;6.60;;
20008;SDS011;10165;42.662;23.260;2022-07-24T06:20:36;13.80;;;6.50;;
20008;SDS011;10165;42.662;23.260;2022-07-24T06:23:03;17.27;;;6.60;;
20008;SDS011;10165;42.662;23.260;2022-07-24T06:25:29;13.33;;;6.10;;
20008;SDS011;10165;42.662;23.260;2022-07-24T06:27:56;16.60;;;6.50;;
20008;SDS011;10165;42.662;23.260;2022-07-24T06:30:24;10.17;;;5.90;;
20008;SDS011;10165;42.662;23.260;2022-07-24T06:32:54;10.67;;;6.10;;
20008;SDS011;10165;42.662;23.260;2022-07-24T06:35:23;14.00;;;6.73;;
20008;SDS011;10165;42.662;23.260;2022-07-24T06:37:51;13.93;;;6.17;;
20008;SDS011;10165;42.662;23.260;2022-07-24T06:40:18;13.37;;;6.47;;
20008;SDS011;10165;42.662;23.260;2022-07-24T06:42:46;8.43;;;5.90;;
20008;SDS011;10165;42.662;23.260;2022-07-24T06:45:13;10.90;;;6.60;;
20008;SDS011;10165;42.662;23.260;2022-07-24T06:47:41;14.70;;;6.13;;
20008;SDS011;10165;42.662;23.260;2022-07-24T06:50:09;15.50;;;7.17;;
20008;SDS011;10165;42.662;23.260;2022-07-24T06:52:36;14.90;;;7.40;;
20008;SDS011;10165;42.662;23.260;2022-07-24T06:55:04;15.43;;;7.33;;
20008;SDS011;10165;42.662;23.260;2022-07-24T06:57:31;14.17;;;7.43;;
20008;SDS011;10165;42.662;23.260;2022-07-24T06:59:59;14.70;;;7.40;;
20008;SDS011;10165;42.662;23.260;2022-07-24T07:02:25;15.80;;;7.20;;
20008;SDS011;10165;42.662;23.260;2022-07-24T07:04:52;12.70;;;7.37;;
20008;SDS011;10165;42.662;23.260;2022-07-24T07:07:29;11.97;;;7.17;;
20008;SDS011;10165;42.662;23.260;2022-07-24T07:09:56;17.07;;;7.07;;
20008;SDS011;10165;42.662;23.260;2022-07-24T07:12:22;12.07;;;7.07;;
20008;SDS011;10165;42.662;23.260;2022-07-24T07:14:49;13.97;;;7.43;;
20008;SDS011;10165;42.662;23.260;2022-07-24T07:17:16;11.47;;;6.63;;
20008;SDS011;10165;42.662;23.260;2022-07-24T07:19:43;15.27;;;6.77;;
20008;SDS011;10165;42.662;23.260;2022-07-24T07:22:10;15.30;;;7.53;;
20008;SDS011;10165;42.662;23.260;2022-07-24T07:24:37;22.23;;;7.60;;
20008;SDS011;10165;42.662;23.260;2022-07-24T07:27:09;17.13;;;7.40;;
20008;SDS011;10165;42.662;23.260;2022-07-24T07:29:36;18.60;;;7.47;;
20008;SDS011;10165;42.662;23.260;2022-07-24T07:32:03;15.87;;;6.83;;
20008;SDS011;10165;42.662;23.260;2022-07-24T07:34:30;19.37;;;7.57;;
20008;SDS011;10165;42.662;23.260;2022-07-24T07:36:56;12.77;;;7.37;;
20008;SDS011;10165;42.662;23.260;2022-07-24T07:39:23;14.87;;;6.87;;
20008;SDS011;10165;42.662;23.260;2022-07-24T07:41:50;13.93;;;6.73;;
20008;SDS011;10165;42.662;23.260;2022-07-24T07:44:17;12.00;;;6.63;;
20008;SDS011;10165;42.662;23.260;2022-07-24T07:46:43;10.50;;;6.77;;
20008;SDS011;10165;42.662;23.260;2022-07-24T07:49:10;11.43;;;6.43;;
20008;SDS011;10165;42.662;23.260;2022-07-24T07:51:37;13.03;;;6.50;;
20008;SDS011;10165;42.662;23.260;2022-07-24T07:54:06;15.87;;;7.40;;
20008;SDS011;10165;42.662;23.260;2022-07-24T07:56:32;12.27;;;6.87;;
20008;SDS011;10165;42.662;23.260;2022-07-24T07:58:59;13.33;;;6.60;;
20008;SDS011;10165;42.662;23.260;2022-07-24T08:01:27;15.43;;;6.73;;
20008;SDS011;10165;42.662;23.260;2022-07-24T08:03:54;16.13;;;7.43;;
20008;SDS011;10165;42.662;23.260;2022-07-24T08:06:20;14.87;;;6.90;;
20008;SDS011;10165;42.662;23.260;2022-07-24T08:08:49;11.00;;;7.07;;
20008;SDS011;10165;42.662;23.260;2022-07-24T08:11:16;8.03;;;6.67;;
20008;SDS011;10165;42.662;23.260;2022-07-24T08:13:43;9.47;;;7.00;;
20008;SDS011;10165;42.662;23.260;2022-07-24T08:16:10;16.53;;;7.10;;
20008;SDS011;10165;42.662;23.260;2022-07-24T08:18:37;14.50;;;7.27;;
20008;SDS011;10165;42.662;23.260;2022-07-24T08:21:04;12.40;;;7.10;;
20008;SDS011;10165;42.662;23.260;2022-07-24T08:23:31;13.77;;;7.30;;
20008;SDS011;10165;42.662;23.260;2022-07-24T08:25:58;13.87;;;7.80;;
20008;SDS011;10165;42.662;23.260;2022-07-24T08:28:25;13.83;;;7.23;;
20008;SDS011;10165;42.662;23.260;2022-07-24T08:30:51;14.60;;;6.70;;
20008;SDS011;10165;42.662;23.260;2022-07-24T08:33:18;17.00;;;7.23;;
20008;SDS011;10165;42.662;23.260;2022-07-24T08:35:45;9.40;;;6.97;;
20008;SDS011;10165;42.662;23.260;2022-07-24T08:38:12;18.90;;;7.28;;
20008;SDS011;10165;42.662;23.260;2022-07-24T08:40:39;17.30;;;7.45;;
20008;SDS011;10165;42.662;23.260;2022-07-24T08:43:07;13.32;;;7.85;;
20008;SDS011;10165;42.662;23.260;2022-07-24T08:45:36;14.02;;;7.75;;
20008;SDS011;10165;42.662;23.260;2022-07-24T08:48:06;16.75;;;7.15;;
20008;SDS011;10165;42.662;23.260;2022-07-24T08:50:35;12.13;;;7.40;;
20008;SDS011;10165;42.662;23.260;2022-07-24T08:53:04;9.30;;;6.72;;
20008;SDS011;10165;42.662;23.260;2022-07-24T08:55:31;14.68;;;7.07;;
20008;SDS011;10165;42.662;23.260;2022-07-24T08:57:59;13.93;;;7.20;;
20008;SDS011;10165;42.662;23.260;2022-07-24T09:00:27;16.05;;;7.40;;
20008;SDS011;10165;42.662;23.260;2022-07-24T09:02:55;17.30;;;7.75;;
20008;SDS011;10165;42.662;23.260;2022-07-24T09:05:22;11.43;;;7.22;;
20008;SDS011;10165;42.662;23.260;2022-07-24T09:07:50;15.70;;;7.40;;
20008;SDS011;10165;42.662;23.260;2022-07-24T09:10:35;19.02;;;7.25;;
20008;SDS011;10165;42.662;23.260;2022-07-24T09:13:15;17.98;;;7.60;;
20008;SDS011;10165;42.662;23.260;2022-07-24T09:15:44;18.85;;;7.63;;
20008;SDS011;10165;42.662;23.260;2022-07-24T09:18:25;17.88;;;7.43;;
20008;SDS011;10165;42.662;23.260;2022-07-24T09:20:53;13.13;;;7.40;;
20008;SDS011;10165;42.662;23.260;2022-07-24T09:23:20;18.38;;;7.57;;
20008;SDS011;10165;42.662;23.260;2022-07-24T09:25:49;14.35;;;7.18;;
20008;SDS011;10165;42.662;23.260;2022-07-24T09:28:18;17.77;;;7.72;;
20008;SDS011;10165;42.662;23.260;2022-07-24T09:30:46;12.30;;;7.30;;
20008;SDS011;10165;42.662;23.260;2022-07-24T09:33:16;15.55;;;7.38;;
20008;SDS011;10165;42.662;23.260;2022-07-24T09:35:48;18.15;;;8.48;;
20008;SDS011;10165;42.662;23.260;2022-07-24T09:38:23;16.42;;;7.43;;
20008;SDS011;10165;42.662;23.260;2022-07-24T09:40:51;16.08;;;8.32;;
20008;SDS011;10165;42.662;23.260;2022-07-24T09:43:22;15.35;;;7.38;;
20008;SDS011;10165;42.662;23.260;2022-07-24T09:46:04;15.80;;;7.65;;
20008;SDS011;10165;42.662;23.260;2022-07-24T09:52:16;11.48;;;6.80;;
20008;SDS011;10165;42.662;23.260;2022-07-24T09:54:49;15.82;;;7.80;;
20008;SDS011;10165;42.662;23.260;2022-07-24T09:57:23;13.48;;;7.28;;
20008;SDS011;10165;42.662;23.260;2022-07-24T09:59:52;8.50;;;5.82;;
20008;SDS011;10165;42.662;23.260;2022-07-24T10:02:27;12.07;;;5.97;;
20008;SDS011;10165;42.662;23.260;2022-07-24T10:04:56;9.52;;;5.70;;
20008;SDS011;10165;42.662;23.260;2022-07-24T10:07:26;11.25;;;5.43;;
20008;SDS011;10165;42.662;23.260;2022-07-24T10:09:55;11.60;;;6.88;;
20008;SDS011;10165;42.662;23.260;2022-07-24T10:12:24;11.52;;;5.95;;
20008;SDS011;10165;42.662;23.260;2022-07-24T10:14:53;10.15;;;5.75;;
20008;SDS011;10165;42.662;23.260;2022-07-24T10:17:27;11.55;;;5.45;;
20008;SDS011;10165;42.662;23.260;2022-07-24T10:20:39;10.45;;;5.80;;
20008;SDS011;10165;42.662;23.260;2022-07-24T10:23:14;9.25;;;6.25;;
20008;SDS011;10165;42.662;23.260;2022-07-24T10:25:51;10.23;;;6.53;;
20008;SDS011;10165;42.662;23.260;2022-07-24T10:28:40;11.50;;;6.07;;
20008;SDS011;10165;42.662;23.260;2022-07-24T10:31:10;12.00;;;5.93;;
20008;SDS011;10165;42.662;23.260;2022-07-24T10:33:41;17.55;;;6.28;;
20008;SDS011;10165;42.662;23.260;2022-07-24T10:36:16;10.70;;;6.28;;
20008;SDS011;10165;42.662;23.260;2022-07-24T10:38:52;10.55;;;6.22;;
20008;SDS011;10165;42.662;23.260;2022-07-24T10:41:24;11.02;;;6.70;;
20008;SDS011;10165;42.662;23.260;2022-07-24T10:44:11;10.45;;;5.97;;
20008;SDS011;10165;42.662;23.260;2022-07-24T10:46:59;12.07;;;6.03;;
20008;SDS011;10165;42.662;23.260;2022-07-24T10:49:33;13.95;;;5.88;;
20008;SDS011;10165;42.662;23.260;2022-07-24T10:52:29;11.07;;;5.30;;
20008;SDS011;10165;42.662;23.260;2022-07-24T10:58:04;8.07;;;5.60;;
20008;SDS011;10165;42.662;23.260;2022-07-24T11:00:40;8.13;;;5.45;;
20008;SDS011;10165;42.662;23.260;2022-07-24T11:06:08;8.38;;;5.70;;
20008;SDS011;10165;42.662;23.260;2022-07-24T11:08:37;11.13;;;5.93;;
20008;SDS011;10165;42.662;23.260;2022-07-24T11:11:09;12.13;;;5.97;;
20008;SDS011;10165;42.662;23.260;2022-07-24T11:13:40;8.50;;;5.90;;
20008;SDS011;10165;42.662;23.260;2022-07-24T11:21:33;7.15;;;5.40;;
20008;SDS011;10165;42.662;23.260;2022-07-24T11:26:51;9.88;;;6.18;;
20008;SDS011;10165;42.662;23.260;2022-07-24T11:29:28;9.63;;;6.15;;
20008;SDS011;10165;42.662;23.260;2022-07-24T11:31:57;12.20;;;6.15;;
20008;SDS011;10165;42.662;23.260;2022-07-24T11:34:25;8.35;;;6.03;;
20008;SDS011;10165;42.662;23.260;2022-07-24T11:36:53;9.65;;;6.20;;
20008;SDS011;10165;42.662;23.260;2022-07-24T11:39:26;8.68;;;6.00;;
20008;SDS011;10165;42.662;23.260;2022-07-24T11:41:57;12.00;;;6.03;;
20008;SDS011;10165;42.662;23.260;2022-07-24T11:44:31;11.10;;;6.68;;
20008;SDS011;10165;42.662;23.260;2022-07-24T11:47:21;9.15;;;5.55;;
20008;SDS011;10165;42.662;23.260;2022-07-24T11:49:50;14.70;;;6.90;;
20008;SDS011;10165;42.662;23.260;2022-07-24T11:55:00;10.60;;;6.00;;
20008;SDS011;10165;42.662;23.260;2022-07-24T11:57:31;9.13;;;5.97;;
20008;SDS011;10165;42.662;23.260;2022-07-24T12:00:21;9.27;;;6.15;;
20008;SDS011;10165;42.662;23.260;2022-07-24T12:02:58;10.88;;;6.35;;
20008;SDS011;10165;42.662;23.260;2022-07-24T12:05:34;9.23;;;6.70;;
20008;SDS011;10165;42.662;23.260;2022-07-24T12:08:05;12.85;;;6.57;;
20008;SDS011;10165;42.662;23.260;2022-07-24T12:10:56;12.35;;;6.25;;
20008;SDS011;10165;42.662;23.260;2022-07-24T12:13:24;9.43;;;6.05;;
20008;SDS011;10165;42.662;23.260;2022-07-24T12:15:51;8.02;;;6.05;;
20008;SDS011;10165;42.662;23.260;2022-07-24T12:18:18;7.85;;;5.57;;
20008;SDS011;10165;42.662;23.260;2022-07-24T12:20:57;8.90;;;6.10;;
20008;SDS011;10165;42.662;23.260;2022-07-24T12:23:25;12.73;;;6.20;;
20008;SDS011;10165;42.662;23.260;2022-07-24T12:25:52;9.05;;;6.10;;
20008;SDS011;10165;42.662;23.260;2022-07-24T12:28:19;6.50;;;5.85;;
20008;SDS011;10165;42.662;23.260;2022-07-24T12:38:24;8.85;;;6.35;;
20008;SDS011;10165;42.662;23.260;2022-07-24T12:41:00;7.53;;;6.30;;
20008;SDS011;10165;42.662;23.260;2022-07-24T12:46:30;9.52;;;7.18;;
20008;SDS011;10165;42.662;23.260;2022-07-24T12:51:26;9.18;;;6.60;;
20008;SDS011;10165;42.662;23.260;2022-07-24T12:54:09;12.05;;;6.97;;
20008;SDS011;10165;42.662;23.260;2022-07-24T12:56:43;11.88;;;6.68;;
20008;SDS011;10165;42.662;23.260;2022-07-24T13:02:56;14.73;;;7.45;;
20008;SDS011;10165;42.662;23.260;2022-07-24T13:05:39;16.02;;;6.57;;
20008;SDS011;10165;42.662;23.260;2022-07-24T13:08:08;10.30;;;6.18;;
20008;SDS011;10165;42.662;23.260;2022-07-24T13:10:34;10.77;;;6.60;;
20008;SDS011;10165;42.662;23.260;2022-07-24T13:13:02;10.80;;;6.78;;
20008;SDS011;10165;42.662;23.260;2022-07-24T13:15:29;11.13;;;6.53;;
20008;SDS011;10165;42.662;23.260;2022-07-24T13:17:56;7.93;;;6.80;;
20008;SDS011;10165;42.662;23.260;2022-07-24T13:20:23;10.50;;;7.03;;
20008;SDS011;10165;42.662;23.260;2022-07-24T13:22:49;10.57;;;6.82;;
20008;SDS011;10165;42.662;23.260;2022-07-24T13:25:16;10.43;;;7.00;;
20008;SDS011;10165;42.662;23.260;2022-07-24T13:27:44;10.23;;;7.00;;
20008;SDS011;10165;42.662;23.260;2022-07-24T13:30:31;8.68;;;7.10;;
20008;SDS011;10165;42.662;23.260;2022-07-24T13:32:57;9.38;;;6.75;;
20008;SDS011;10165;42.662;23.260;2022-07-24T13:35:24;12.63;;;7.10;;
20008;SDS011;10165;42.662;23.260;2022-07-24T13:37:51;8.85;;;6.93;;
20008;SDS011;10165;42.662;23.260;2022-07-24T13:40:23;14.13;;;7.65;;
20008;SDS011;10165;42.662;23.260;2022-07-24T13:42:50;9.90;;;7.20;;
20008;SDS011;10165;42.662;23.260;2022-07-24T13:45:17;10.15;;;7.78;;
20008;SDS011;10165;42.662;23.260;2022-07-24T13:47:43;9.18;;;7.72;;
20008;SDS011;10165;42.662;23.260;2022-07-24T13:50:10;6.80;;;5.80;;
20008;SDS011;10165;42.662;23.260;2022-07-24T13:52:37;9.73;;;6.30;;
20008;SDS011;10165;42.662;23.260;2022-07-24T13:55:04;11.82;;;6.78;;
20008;SDS011;10165;42.662;23.260;2022-07-24T13:57:31;8.43;;;6.43;;
20008;SDS011;10165;42.662;23.260;2022-07-24T13:59:58;10.23;;;7.40;;
20008;SDS011;10165;42.662;23.260;2022-07-24T14:02:24;13.05;;;7.22;;
20008;SDS011;10165;42.662;23.260;2022-07-24T14:04:51;10.32;;;7.60;;
20008;SDS011;10165;42.662;23.260;2022-07-24T14:07:18;9.77;;;7.85;;
20008;SDS011;10165;42.662;23.260;2022-07-24T14:09:45;11.02;;;7.20;;
20008;SDS011;10165;42.662;23.260;2022-07-24T14:12:11;7.78;;;6.78;;
20008;SDS011;10165;42.662;23.260;2022-07-24T14:14:39;17.95;;;7.57;;
20008;SDS011;10165;42.662;23.260;2022-07-24T14:17:06;23.88;;;7.57;;
20008;SDS011;10165;42.662;23.260;2022-07-24T14:19:32;9.80;;;6.90;;
20008;SDS011;10165;42.662;23.260;2022-07-24T14:21:59;18.40;;;8.20;;
20008;SDS011;10165;42.662;23.260;2022-07-24T14:24:26;15.23;;;7.60;;
20008;SDS011;10165;42.662;23.260;2022-07-24T14:26:53;12.65;;;7.88;;
20008;SDS011;10165;42.662;23.260;2022-07-24T14:29:20;12.77;;;6.57;;
20008;SDS011;10165;42.662;23.260;2022-07-24T14:31:46;10.88;;;6.25;;
20008;SDS011;10165;42.662;23.260;2022-07-24T14:34:13;9.88;;;6.78;;
20008;SDS011;10165;42.662;23.260;2022-07-24T14:36:40;10.45;;;6.70;;
20008;SDS011;10165;42.662;23.260;2022-07-24T14:39:07;7.72;;;6.55;;
20008;SDS011;10165;42.662;23.260;2022-07-24T14:41:35;8.05;;;6.30;;
20008;SDS011;10165;42.662;23.260;2022-07-24T14:44:02;18.17;;;7.10;;
20008;SDS011;10165;42.662;23.260;2022-07-24T14:46:38;18.10;;;7.78;;
20008;SDS011;10165;42.662;23.260;2022-07-24T14:49:06;12.38;;;6.40;;
20008;SDS011;10165;42.662;23.260;2022-07-24T14:51:36;10.07;;;7.25;;
20008;SDS011;10165;42.662;23.260;2022-07-24T14:54:04;11.20;;;7.18;;
20008;SDS011;10165;42.662;23.260;2022-07-24T14:56:32;10.38;;;6.60;;
20008;SDS011;10165;42.662;23.260;2022-07-24T14:58:59;9.68;;;6.53;;
20008;SDS011;10165;42.662;23.260;2022-07-24T15:01:26;10.43;;;6.55;;
20008;SDS011;10165;42.662;23.260;2022-07-24T15:03:53;10.30;;;7.03;;
20008;SDS011;10165;42.662;23.260;2022-07-24T15:06:20;13.77;;;6.82;;
20008;SDS011;10165;42.662;23.260;2022-07-24T15:08:47;8.10;;;6.93;;
20008;SDS011;10165;42.662;23.260;2022-07-24T15:11:16;8.57;;;7.68;;
20008;SDS011;10165;42.662;23.260;2022-07-24T15:13:42;10.35;;;8.10;;